Shelf Achiever — WDF4620 — position and weather

sailwx.info

Track history (hours):
 
Tides and Currents Weather Stations Pressure Air Temp Water Temp Dewpoint Dewpoint Depression Visibility Wind Speed Wind Dir Waves Ship Positions

Shelf Achiever

Owner: Shelf Workboats LLC, Galliano, LA. More information available from US FCC via Universal Licensing System and Coast Guard Vessel Documentation Center.

Last reported at 2017-Nov-18 07:06 UTC. Time now 2017-Nov-18 21:10 UTC.
Position N 29°43' W 092°06'.

Length 37 m.

Type: Passenger vessel. MMSI: 368502516.

Date/timePositionNaut miles runAvg speedWind from/ knotsBaromVisibWave heightAir tempDewpointWater temp
2017-Nov-18 07:06N 29°43' W 092°06'215.2
2017-Nov-18 06:57N 29°45' W 092°07'4 9.0
2017-Nov-18 06:30N 29°47' W 092°11'0 0.2
2017-Nov-18 06:00N 29°47' W 092°11'3 6.5
2017-Nov-18 05:31N 29°46' W 092°08'5 0.2
2017-Nov-17 04:04N 29°42' W 092°04'117.1
2017-Nov-17 04:00N 29°42' W 092°05'611.8
2017-Nov-17 03:30N 29°47' W 092°09'2 3.1
2017-Nov-17 03:00N 29°47' W 092°11'0 0.1
2017-Nov-17 02:30N 29°47' W 092°11'0 0.0
2017-Nov-17 02:00N 29°47' W 092°11'0 0.2
2017-Nov-17 01:30N 29°47' W 092°11'3 5.2
2017-Nov-17 01:01N 29°47' W 092°08'12 0.9
2017-Nov-16 12:05N 29°37' W 092°00'218.1
2017-Nov-16 11:59N 29°38' W 092°01'817.2
2017-Nov-16 11:30N 29°45' W 092°07'4 7.9
2017-Nov-16 11:00N 29°47' W 092°11'0 0.2
2017-Nov-16 10:30N 29°47' W 092°11'0 0.0
2017-Nov-16 10:00N 29°47' W 092°11'0 0.0
2017-Nov-16 09:30N 29°47' W 092°11'0 0.0
2017-Nov-16 09:00N 29°47' W 092°11'0 0.0
2017-Nov-16 08:30N 29°47' W 092°11'0 0.0
2017-Nov-16 08:00N 29°47' W 092°11'0 0.0
2017-Nov-16 07:30N 29°47' W 092°11'0 0.0
2017-Nov-16 07:00N 29°47' W 092°11'0 0.0
2017-Nov-16 06:30N 29°47' W 092°11'0 0.0
2017-Nov-16 06:00N 29°47' W 092°11'0 0.0
2017-Nov-16 05:30N 29°47' W 092°11'0 0.0
2017-Nov-16 05:00N 29°47' W 092°11'0 0.0
2017-Nov-16 04:30N 29°47' W 092°11'0 0.0
2017-Nov-16 04:00N 29°47' W 092°11'0 0.0
2017-Nov-16 03:30N 29°47' W 092°11'0 0.0
2017-Nov-16 03:00N 29°47' W 092°11'0 0.0
2017-Nov-16 02:30N 29°47' W 092°11'0 0.0
2017-Nov-16 02:00N 29°47' W 092°11'4 7.6
2017-Nov-16 01:30N 29°45' W 092°07'4 0.3
2017-Nov-15 11:59N 29°42' W 092°04'714.5
2017-Nov-15 11:30N 29°47' W 092°09'2 3.3
2017-Nov-15 11:01N 29°47' W 092°11'0 0.0
2017-Nov-15 10:31N 29°47' W 092°11'0 0.0
2017-Nov-15 10:01N 29°47' W 092°11'0 0.0
2017-Nov-15 09:30N 29°47' W 092°11'0 0.0
2017-Nov-15 09:00N 29°47' W 092°11'0 0.0
2017-Nov-15 08:31N 29°47' W 092°11'0 0.0
2017-Nov-15 08:00N 29°47' W 092°11'0 0.0
2017-Nov-15 07:30N 29°47' W 092°11'0 0.0
2017-Nov-15 07:00N 29°47' W 092°11'0 0.0
2017-Nov-15 06:30N 29°47' W 092°11'0 0.0
2017-Nov-15 06:00N 29°47' W 092°11'0 0.0
2017-Nov-15 05:31N 29°47' W 092°11'0 0.0
2017-Nov-15 05:01N 29°47' W 092°11'0 0.2
2017-Nov-15 04:30N 29°47' W 092°11'0 0.0
2017-Nov-15 04:00N 29°47' W 092°11'0 0.0
2017-Nov-15 03:30N 29°47' W 092°11'4 8.0
2017-Nov-15 03:01N 29°45' W 092°07'5 0.2
2017-Nov-14 03:53N 29°41' W 092°04'717.3
2017-Nov-14 03:29N 29°46' W 092°08'3 5.4
2017-Nov-14 02:59N 29°47' W 092°11'0 0.0
2017-Nov-14 02:29N 29°47' W 092°11'2 4.1
2017-Nov-14 01:59N 29°47' W 092°09'2 0.0
2017-Nov-12 01:59N 29°47' W 092°11'0 0.0
2017-Nov-12 01:21N 29°47' W 092°11'0 0.0
2017-Nov-12 00:59N 29°47' W 092°11'1 2.2
2017-Nov-12 00:29N 29°47' W 092°10'1 0.1
2017-Nov-11 09:07N 29°47' W 092°11'0 0.0
2017-Nov-11 08:59N 29°47' W 092°11'0 0.0
2017-Nov-11 08:29N 29°47' W 092°11'0 0.0
2017-Nov-11 05:25N 29°47' W 092°11'0 0.0
2017-Nov-11 04:59N 29°47' W 092°11'0 0.0
2017-Nov-11 04:29N 29°47' W 092°11'0 0.0
2017-Nov-11 03:59N 29°47' W 092°11'0 0.2
2017-Nov-11 03:29N 29°47' W 092°11'2 0.9
2017-Nov-11 00:59N 29°47' W 092°09'7 0.3
2017-Nov-10 02:36N 29°42' W 092°04'115.1
2017-Nov-10 02:31N 29°43' W 092°05'611.7
2017-Nov-10 02:00N 29°47' W 092°10'1 1.7
2017-Nov-10 01:30N 29°47' W 092°11'510.3
2017-Nov-10 00:59N 29°43' W 092°06'4 0.2
2017-Nov-09 05:26N 29°40' W 092°03'716.7
2017-Nov-09 05:00N 29°46' W 092°08'3 6.0
2017-Nov-09 04:30N 29°47' W 092°11'0 0.0
2017-Nov-09 04:00N 29°47' W 092°11'0 0.2
2017-Nov-09 03:30N 29°47' W 092°11'0 0.7
2017-Nov-09 03:00N 29°47' W 092°11'4 8.6
2017-Nov-09 02:31N 29°44' W 092°07'5 0.5
2017-Nov-08 17:15N 29°41' W 092°03'417.6
2017-Nov-08 17:00N 29°44' W 092°06'5 9.4
2017-Nov-08 16:31N 29°47' W 092°11'0 0.5
2017-Nov-08 16:01N 29°47' W 092°11'1 1.6
2017-Nov-08 15:30N 29°47' W 092°10'5 9.3
2017-Nov-08 15:00N 29°44' W 092°06'  
Track history (hours):
 
Tides and Currents Weather Stations Pressure Air Temp Water Temp Dewpoint Dewpoint Depression Visibility Wind Speed Wind Dir Waves Ship Positions

Shelf Achiever

Owner: Shelf Workboats LLC, Galliano, LA. More information available from US FCC via Universal Licensing System and Coast Guard Vessel Documentation Center.

Last reported at 2017-Nov-18 07:06 UTC. Time now 2017-Nov-18 21:10 UTC.
Position N 29°43' W 092°06'.

Length 37 m.

Type: Passenger vessel. MMSI: 368502516.

Date/timePositionNaut miles runAvg speedWind from/ knotsBaromVisibWave heightAir tempDewpointWater temp
2017-Nov-18 07:06N 29°43' W 092°06'215.2
2017-Nov-18 06:57N 29°45' W 092°07'4 9.0
2017-Nov-18 06:30N 29°47' W 092°11'0 0.2
2017-Nov-18 06:00N 29°47' W 092°11'3 6.5
2017-Nov-18 05:31N 29°46' W 092°08'5 0.2
2017-Nov-17 04:04N 29°42' W 092°04'117.1
2017-Nov-17 04:00N 29°42' W 092°05'611.8
2017-Nov-17 03:30N 29°47' W 092°09'2 3.1
2017-Nov-17 03:00N 29°47' W 092°11'0 0.1
2017-Nov-17 02:30N 29°47' W 092°11'0 0.0
2017-Nov-17 02:00N 29°47' W 092°11'0 0.2
2017-Nov-17 01:30N 29°47' W 092°11'3 5.2
2017-Nov-17 01:01N 29°47' W 092°08'12 0.9
2017-Nov-16 12:05N 29°37' W 092°00'218.1
2017-Nov-16 11:59N 29°38' W 092°01'817.2
2017-Nov-16 11:30N 29°45' W 092°07'4 7.9
2017-Nov-16 11:00N 29°47' W 092°11'0 0.2
2017-Nov-16 10:30N 29°47' W 092°11'0 0.0
2017-Nov-16 10:00N 29°47' W 092°11'0 0.0
2017-Nov-16 09:30N 29°47' W 092°11'0 0.0
2017-Nov-16 09:00N 29°47' W 092°11'0 0.0
2017-Nov-16 08:30N 29°47' W 092°11'0 0.0
2017-Nov-16 08:00N 29°47' W 092°11'0 0.0
2017-Nov-16 07:30N 29°47' W 092°11'0 0.0
2017-Nov-16 07:00N 29°47' W 092°11'0 0.0
2017-Nov-16 06:30N 29°47' W 092°11'0 0.0
2017-Nov-16 06:00N 29°47' W 092°11'0 0.0
2017-Nov-16 05:30N 29°47' W 092°11'0 0.0
2017-Nov-16 05:00N 29°47' W 092°11'0 0.0
2017-Nov-16 04:30N 29°47' W 092°11'0 0.0
2017-Nov-16 04:00N 29°47' W 092°11'0 0.0
2017-Nov-16 03:30N 29°47' W 092°11'0 0.0
2017-Nov-16 03:00N 29°47' W 092°11'0 0.0
2017-Nov-16 02:30N 29°47' W 092°11'0 0.0
2017-Nov-16 02:00N 29°47' W 092°11'4 7.6
2017-Nov-16 01:30N 29°45' W 092°07'4 0.3
2017-Nov-15 11:59N 29°42' W 092°04'714.5
2017-Nov-15 11:30N 29°47' W 092°09'2 3.3
2017-Nov-15 11:01N 29°47' W 092°11'0 0.0
2017-Nov-15 10:31N 29°47' W 092°11'0 0.0
2017-Nov-15 10:01N 29°47' W 092°11'0 0.0
2017-Nov-15 09:30N 29°47' W 092°11'0 0.0
2017-Nov-15 09:00N 29°47' W 092°11'0 0.0
2017-Nov-15 08:31N 29°47' W 092°11'0 0.0
2017-Nov-15 08:00N 29°47' W 092°11'0 0.0
2017-Nov-15 07:30N 29°47' W 092°11'0 0.0
2017-Nov-15 07:00N 29°47' W 092°11'0 0.0
2017-Nov-15 06:30N 29°47' W 092°11'0 0.0
2017-Nov-15 06:00N 29°47' W 092°11'0 0.0
2017-Nov-15 05:31N 29°47' W 092°11'0 0.0
2017-Nov-15 05:01N 29°47' W 092°11'0 0.2
2017-Nov-15 04:30N 29°47' W 092°11'0 0.0
2017-Nov-15 04:00N 29°47' W 092°11'0 0.0
2017-Nov-15 03:30N 29°47' W 092°11'4 8.0
2017-Nov-15 03:01N 29°45' W 092°07'5 0.2
2017-Nov-14 03:53N 29°41' W 092°04'717.3
2017-Nov-14 03:29N 29°46' W 092°08'3 5.4
2017-Nov-14 02:59N 29°47' W 092°11'0 0.0
2017-Nov-14 02:29N 29°47' W 092°11'2 4.1
2017-Nov-14 01:59N 29°47' W 092°09'2 0.0
2017-Nov-12 01:59N 29°47' W 092°11'0 0.0
2017-Nov-12 01:21N 29°47' W 092°11'0 0.0
2017-Nov-12 00:59N 29°47' W 092°11'1 2.2
2017-Nov-12 00:29N 29°47' W 092°10'1 0.1
2017-Nov-11 09:07N 29°47' W 092°11'0 0.0
2017-Nov-11 08:59N 29°47' W 092°11'0 0.0
2017-Nov-11 08:29N 29°47' W 092°11'0 0.0
2017-Nov-11 05:25N 29°47' W 092°11'0 0.0
2017-Nov-11 04:59N 29°47' W 092°11'0 0.0
2017-Nov-11 04:29N 29°47' W 092°11'0 0.0
2017-Nov-11 03:59N 29°47' W 092°11'0 0.2
2017-Nov-11 03:29N 29°47' W 092°11'2 0.9
2017-Nov-11 00:59N 29°47' W 092°09'7 0.3
2017-Nov-10 02:36N 29°42' W 092°04'115.1
2017-Nov-10 02:31N 29°43' W 092°05'611.7
2017-Nov-10 02:00N 29°47' W 092°10'1 1.7
2017-Nov-10 01:30N 29°47' W 092°11'510.3
2017-Nov-10 00:59N 29°43' W 092°06'4 0.2
2017-Nov-09 05:26N 29°40' W 092°03'716.7
2017-Nov-09 05:00N 29°46' W 092°08'3 6.0
2017-Nov-09 04:30N 29°47' W 092°11'0 0.0
2017-Nov-09 04:00N 29°47' W 092°11'0 0.2
2017-Nov-09 03:30N 29°47' W 092°11'0 0.7
2017-Nov-09 03:00N 29°47' W 092°11'4 8.6
2017-Nov-09 02:31N 29°44' W 092°07'5 0.5
2017-Nov-08 17:15N 29°41' W 092°03'417.6
2017-Nov-08 17:00N 29°44' W 092°06'5 9.4
2017-Nov-08 16:31N 29°47' W 092°11'0 0.5
2017-Nov-08 16:01N 29°47' W 092°11'1 1.6
2017-Nov-08 15:30N 29°47' W 092°10'5 9.3
2017-Nov-08 15:00N 29°44' W 092°06'  

Dump ship's entire track history